Observations for LORIENT LANN BIHOUE, France (LFRH)

LFRH 220730Z AUTO 16010KT 9999 BKN028 BKN034 BKN042 15/13 Q1021 TEMPO 4000 RA   
LFRH 220700Z AUTO 16008KT 9999 SCT030 BKN039 OVC068 15/13 Q1021 TEMPO 4000 RA   
LFRH 220630Z AUTO 16005KT 9999 FEW032 OVC066 14/12 Q1021 TEMPO 4000 RA  
LFRH 220600Z AUTO 12003KT CAVOK 12/12 Q1021 TEMPO 4000 RA   
LFRH 220530Z AUTO 14004KT 100V170 CAVOK 12/12 Q1021 TEMPO 4000 RA   
LFRH 220500Z AUTO 11003KT 9999 ///TCU 12/12 Q1022 BECMG BKN030 OVC070   
LFRH 220430Z AUTO 08003KT CAVOK 12/12 Q1022 NOSIG   
LFRH 220400Z AUTO 07003KT 9999 FEW028 OVC100 11/11 Q1022 NOSIG  
LFRH 220330Z AUTO VRB02KT 9999 FEW029 SCT035 OVC100 11/11 Q1023 NOSIG   
LFRH 220300Z AUTO VRB02KT 9999 BKN031 BKN045 OVC100 11/11 Q1023 NOSIG   
LFRH 220230Z AUTO 11001KT 9999 FEW033 OVC120 11/11 Q1023 NOSIG  
LFRH 220200Z AUTO VRB02KT 9999 FEW032 OVC130 10/10 Q1023 NOSIG  
LFRH 220130Z AUTO 10002KT CAVOK 10/10 Q1023 NOSIG   
LFRH 220100Z AUTO 04002KT CAVOK 10/10 Q1023 NOSIG   
LFRH 220030Z AUTO 00000KT CAVOK 10/10 Q1023 NOSIG   
LFRH 220000Z AUTO 00000KT CAVOK 10/10 Q1024 NOSIG   
LFRH 212330Z AUTO 00000KT CAVOK 10/10 Q1024 NOSIG   
LFRH 212300Z AUTO 18002KT CAVOK 11/10 Q1024 NOSIG   
LFRH 212230Z AUTO 00000KT CAVOK 11/11 Q1024 NOSIG   
LFRH 212200Z AUTO 00000KT CAVOK 11/10 Q1024 NOSIG   
LFRH 212130Z AUTO 00000KT CAVOK 12/10 Q1023 NOSIG   
LFRH 212100Z AUTO 27001KT CAVOK 12/10 Q1024 NOSIG   
LFRH 212030Z AUTO 29002KT CAVOK 12/09 Q1023 NOSIG   
LFRH 212000Z AUTO 28003KT CAVOK 12/10 Q1024 NOSIG   
LFRH 211930Z AUTO 24002KT CAVOK 12/09 Q1023 NOSIG   
LFRH 211900Z AUTO 30002KT CAVOK 13/09 Q1023 NOSIG   
LFRH 211830Z AUTO 31003KT 9999 FEW049 13/08 Q1023 NOSIG 
LFRH 211800Z AUTO 28008KT 9999 FEW039 SCT056 15/08 Q1022 NOSIG  
LFRH 211730Z AUTO 27011KT 9999 SCT041 SCT047 BKN058 16/10 Q1022 NOSIG   
LFRH 211700Z AUTO 26013KT 9999 FEW040 SCT060 OVC220 16/10 Q1021 NOSIG   
LFRH 211630Z AUTO 26012KT 9999 FEW040 BKN064 BKN220 16/09 Q1021 NOSIG   
LFRH 211600Z AUTO 27013KT 9999 SCT041 BKN049 BKN064 16/10 Q1021 NOSIG   
LFRH 211530Z AUTO 27015KT 9999 BKN042 BKN048 BKN056 17/09 Q1021 NOSIG   
LFRH 211500Z AUTO 27014KT 9999 BKN045 BKN058 BKN070 17/08 Q1021 NOSIG   
LFRH 211430Z AUTO 26017KT 9999 SCT044 BKN054 BKN066 18/09 Q1021 NOSIG   
LFRH 211400Z AUTO 27013KT 9999 BKN049 BKN060 18/09 Q1021 NOSIG  
LFRH 211330Z AUTO 26014KT 9999 FEW049 17/08 Q1020 NOSIG 
LFRH 211300Z AUTO 26016KT 9999 SCT040 BKN048 BKN064 17/09 Q1020 NOSIG   
LFRH 211230Z AUTO 26014KT 240V300 9999 FEW035 BKN045 BKN062 17/09 Q1020 NOSIG   
LFRH 211200Z AUTO 28011KT 250V320 9999 FEW037 SCT060 17/09 Q1020 NOSIG  
LFRH 211130Z AUTO 30006KT 260V330 9999 SCT034 SCT046 BKN054 16/12 Q1020 NOSIG   
LFRH 211100Z AUTO 27009KT 240V300 9999 SCT035 BKN045 BKN060 16/09 Q1019 NOSIG   
LFRH 211030Z AUTO 28009KT 240V320 9999 SCT032 BKN230 16/10 Q1019 NOSIG  
LFRH 211000Z AUTO 30009KT 250V340 9999 FEW030 BKN230 16/10 Q1018 NOSIG  
LFRH 210930Z AUTO 29007KT CAVOK 15/11 Q1018 NOSIG   
LFRH 210900Z AUTO 30005KT 270V330 CAVOK 14/11 Q1018 NOSIG   
LFRH 210830Z AUTO 31006KT 280V340 CAVOK 14/12 Q1017 NOSIG   
LFRH 210800Z AUTO 31005KT 280V340 CAVOK 13/12 Q1017 NOSIG   
LFRH 210730Z AUTO 29005KT CAVOK 12/12 Q1016 NOSIG   
LFRH 210700Z AUTO 29003KT CAVOK 12/12 Q1016 NOSIG